Time;durP1;ratioP1;P1;durP2;ratioP2;P2;SDS_P1;SDS_P2;PMS_P1;PMS_P2;Temp;Humidity;BMP_temperature;BMP_pressure;BME280_temperature;BME280_humidity;BME280_pressure;Samples;Min_cycle;Max_cycle;Signal;HPM_P1;HPM_P2
2022/12/22 04:30:07;;;;;;;11.85;5.50;;;;;;;3.45;74.12;98641.59;5532197;23;20060;-91
2022/12/22 04:35:40;;;;;;;7.93;4.43;;;;;;;3.48;75.02;98665.34;5125742;23;20056;-91
2022/12/22 05:10:37;;;;;;;10.73;6.97;;;;;;;3.37;76.53;98724.03;4899811;29;20103;-95
2022/12/22 05:13:04;;;;;;;9.70;6.30;;;;;;;2.59;76.55;98614.09;4842203;29;20030;-94
2022/12/22 05:15:37;;;;;;;9.63;6.40;;;;;;;2.66;76.59;98627.28;4841456;29;20054;-96
2022/12/22 05:18:16;;;;;;;13.18;7.30;;;;;;;2.66;76.86;98636.16;4823008;29;20054;-95
2022/12/22 05:20:43;;;;;;;22.92;8.13;;;;;;;2.82;76.92;98661.19;4776814;29;20137;-95
2022/12/22 05:23:12;;;;;;;11.30;7.50;;;;;;;2.93;76.97;98684.34;4812109;29;20054;-95
2022/12/22 05:25:38;;;;;;;15.05;8.50;;;;;;;2.73;76.75;98658.25;4826165;29;20045;-94
2022/12/22 05:28:05;;;;;;;12.85;8.38;;;;;;;2.73;76.69;98649.34;4821686;29;20114;-95
2022/12/22 05:30:32;;;;;;;14.70;6.65;;;;;;;2.52;77.22;98657.56;4810391;29;20141;-96
2022/12/22 05:32:58;;;;;;;11.00;6.90;;;;;;;2.42;77.40;98635.19;4809788;29;20057;-93
2022/12/22 05:35:25;;;;;;;13.70;8.50;;;;;;;2.52;77.58;98668.34;4826267;29;20651;-94
2022/12/22 05:37:52;;;;;;;14.75;8.27;;;;;;;3.15;77.41;98748.75;4822289;29;20456;-95
2022/12/22 05:40:18;;;;;;;15.00;9.23;;;;;;;2.70;77.18;98685.00;4826596;29;20045;-93
2022/12/22 05:43:00;;;;;;;14.52;9.10;;;;;;;2.72;77.43;98693.63;4838419;24;20061;-94
2022/12/22 05:45:28;;;;;;;19.23;9.05;;;;;;;2.79;77.39;98705.72;4862043;29;20029;-95
2022/12/22 05:48:03;;;;;;;15.20;9.45;;;;;;;2.50;77.47;98659.69;4845785;29;20045;-94
2022/12/22 05:50:32;;;;;;;28.65;11.48;;;;;;;2.61;77.61;98682.03;4859452;29;20073;-93
2022/12/22 05:53:07;;;;;;;18.73;10.07;;;;;;;2.43;77.53;98653.00;4875800;29;20097;-96
2022/12/22 05:55:34;;;;;;;19.38;10.50;;;;;;;2.56;77.64;98671.28;4856666;29;20050;-94
2022/12/22 05:58:04;;;;;;;16.63;10.20;;;;;;;2.68;77.67;98681.75;4872191;29;20069;-94
2022/12/22 06:00:31;;;;;;;19.40;10.27;;;;;;;3.13;77.73;98750.13;4844383;29;20041;-93
2022/12/22 06:02:57;;;;;;;;;;;;;;;3.07;77.74;98749.31;4855400;29;20096;-92
2022/12/22 06:08:13;;;;;;;15.48;9.93;;;;;;;2.33;77.79;98643.06;4835048;29;20025;-93
2022/12/22 06:10:39;;;;;;;13.52;8.25;;;;;;;2.52;78.02;98694.50;4936508;24;20053;-91
2022/12/22 06:13:06;;;;;;;15.57;9.45;;;;;;;2.71;77.80;98714.38;4874100;29;20053;-91
2022/12/22 06:15:32;;;;;;;17.25;9.68;;;;;;;2.49;78.51;98698.56;4905715;29;20092;-92
2022/12/22 06:17:58;;;;;;;25.63;12.40;;;;;;;2.71;78.30;98713.59;4908172;29;20056;-93
2022/12/22 06:20:27;;;;;;;24.02;11.13;;;;;;;2.75;77.93;98706.56;4871379;29;20049;-95
2022/12/22 06:23:23;;;;;;;18.40;10.88;;;;;;;3.01;77.84;98748.56;4877106;23;20057;-94
2022/12/22 06:28:43;;;;;;;17.20;9.73;;;;;;;2.83;77.34;98697.88;4863990;29;20046;-89
2022/12/22 06:31:09;;;;;;;16.10;9.25;;;;;;;3.11;77.33;98765.78;4845689;29;20071;-90
2022/12/22 06:33:35;;;;;;;20.65;10.77;;;;;;;2.77;77.39;98717.88;4788140;29;20054;-94
2022/12/22 06:36:10;;;;;;;16.85;9.98;;;;;;;3.08;77.64;98760.94;4799949;29;20058;-92
2022/12/22 06:38:37;;;;;;;19.38;10.63;;;;;;;2.90;77.81;98743.47;4839504;29;20629;-91
2022/12/22 06:43:07;;;;;;;24.67;12.32;;;;;;;2.81;77.71;98721.63;4799614;29;20054;-91
2022/12/22 06:44:30;;;;;;;18.83;10.82;;;;;;;3.01;77.83;98762.06;4832244;29;20045;-93
2022/12/22 06:46:57;;;;;;;25.48;12.70;;;;;;;2.85;77.71;98736.22;4814966;29;20049;-92
2022/12/22 06:49:23;;;;;;;25.98;13.90;;;;;;;2.90;77.63;98735.38;4833199;29;20061;-91
2022/12/22 06:51:58;;;;;;;29.38;14.35;;;;;;;2.79;77.16;98689.53;4823777;29;20114;-89
2022/12/22 06:56:54;;;;;;;25.42;11.32;;;;;;;2.89;76.45;98685.97;4828405;29;20046;-92
2022/12/22 06:59:20;;;;;;;21.17;12.65;;;;;;;3.29;76.53;98754.34;4803459;29;20042;-93
2022/12/22 07:01:47;;;;;;;21.30;10.88;;;;;;;3.11;76.49;98731.47;4842135;29;20080;-92
2022/12/22 07:04:18;;;;;;;23.02;10.82;;;;;;;2.95;76.65;98709.16;4835387;29;20053;-92
2022/12/22 07:06:44;;;;;;;18.15;9.25;;;;;;;3.03;76.18;98737.47;4807514;29;20165;-92
2022/12/22 07:09:21;;;;;;;21.90;12.00;;;;;;;3.12;76.27;98740.41;4850145;29;20168;-91
2022/12/22 07:11:56;;;;;;;19.05;10.68;;;;;;;3.29;76.24;98765.16;4829429;29;20182;-94
2022/12/22 07:14:22;;;;;;;23.40;11.57;;;;;;;3.32;76.49;98775.41;4862735;29;20049;-91
2022/12/22 07:16:48;;;;;;;18.75;10.48;;;;;;;3.34;76.29;98767.00;4818002;29;20038;-90
2022/12/22 07:19:14;;;;;;;20.83;10.85;;;;;;;2.91;76.38;98708.09;4815517;29;20058;-91
2022/12/22 07:21:41;;;;;;;20.33;10.18;;;;;;;3.26;76.08;98773.81;4827935;29;20136;-91
2022/12/22 07:24:07;;;;;;;16.77;10.35;;;;;;;3.19;76.51;98768.72;4831710;29;20061;-93
2022/12/22 07:26:33;;;;;;;18.48;11.18;;;;;;;3.14;76.87;98754.44;4878679;29;20046;-91
2022/12/22 07:28:59;;;;;;;18.27;11.52;;;;;;;3.05;76.11;98717.22;4830933;29;20099;-91
2022/12/22 07:31:27;;;;;;;18.77;11.02;;;;;;;2.94;76.21;98704.03;4830701;29;20049;-91
2022/12/22 07:33:54;;;;;;;19.27;10.48;;;;;;;3.11;76.19;98755.78;4832999;29;20050;-91
2022/12/22 07:36:20;;;;;;;19.27;10.93;;;;;;;3.17;76.19;98759.28;4841161;29;20101;-90
2022/12/22 07:38:49;;;;;;;18.52;10.57;;;;;;;3.12;76.47;98740.41;4850222;29;20428;-95
2022/12/22 07:44:03;;;;;;;17.45;10.18;;;;;;;2.98;75.98;98699.69;4846471;29;20073;-94
2022/12/22 07:46:33;;;;;;;19.95;10.40;;;;;;;3.35;75.81;98782.16;4850412;29;20061;-92
2022/12/22 07:51:44;;;;;;;25.83;10.95;;;;;;;3.25;76.20;98772.22;4846530;29;20037;-91
2022/12/22 07:54:12;;;;;;;21.73;10.98;;;;;;;2.97;76.32;98731.28;4831893;29;20110;-90
2022/12/22 07:56:39;;;;;;;18.98;10.27;;;;;;;3.18;76.29;98750.06;4817394;29;20092;-94
2022/12/22 07:59:06;;;;;;;20.10;11.15;;;;;;;3.22;75.85;98741.16;4834548;29;20090;-95
2022/12/22 08:01:35;;;;;;;19.90;11.57;;;;;;;2.86;75.81;98664.94;4837957;29;20543;-92
2022/12/22 08:04:23;;;;;;;19.88;10.60;;;;;;;3.30;75.39;98739.75;4856050;29;20056;-92
2022/12/22 08:06:51;;;;;;;22.70;10.80;;;;;;;3.36;75.27;98757.56;4842243;29;20065;-92
2022/12/22 08:09:20;;;;;;;20.40;10.07;;;;;;;3.44;75.29;98769.66;4843029;29;20069;-89
2022/12/22 08:11:48;;;;;;;21.00;10.73;;;;;;;3.17;75.41;98741.16;4846108;29;20126;-91
2022/12/22 08:14:14;;;;;;;26.42;11.35;;;;;;;2.81;75.60;98675.75;4885896;29;20045;-91
2022/12/22 08:16:40;;;;;;;21.15;11.38;;;;;;;3.17;75.23;98733.06;4840176;29;20245;-92
2022/12/22 08:19:11;;;;;;;21.05;11.15;;;;;;;3.42;75.61;98788.06;4871612;29;20056;-92
2022/12/22 08:21:37;;;;;;;20.60;11.35;;;;;;;3.26;75.45;98765.72;4856216;29;20053;-93
2022/12/22 08:24:06;;;;;;;18.70;10.88;;;;;;;3.15;76.33;98750.66;4872659;29;20046;-94
2022/12/22 08:26:40;;;;;;;22.73;11.77;;;;;;;3.08;76.05;98740.16;4840956;29;20047;-91
2022/12/22 08:29:20;;;;;;;20.90;12.15;;;;;;;3.14;75.94;98730.91;4871387;29;20093;-91
2022/12/22 08:31:47;;;;;;;19.52;11.05;;;;;;;3.12;75.76;98732.31;4839398;29;20041;-91
2022/12/22 08:34:15;;;;;;;21.52;11.10;;;;;;;3.32;75.57;98778.09;4840780;29;20052;-91
2022/12/22 08:36:51;;;;;;;19.02;11.43;;;;;;;2.75;75.64;98704.69;4841846;29;20042;-92
2022/12/22 08:39:20;;;;;;;27.87;12.13;;;;;;;3.09;76.04;98738.25;4840288;29;20049;-93
2022/12/22 08:41:48;;;;;;;26.13;13.70;;;;;;;3.20;76.11;98742.50;4856021;29;20140;-90
2022/12/22 08:44:22;;;;;;;28.70;14.63;;;;;;;3.08;75.72;98718.56;4872521;29;20045;-91
2022/12/22 08:46:51;;;;;;;20.67;11.15;;;;;;;3.22;75.56;98734.94;4858491;29;20048;-91
2022/12/22 08:49:17;;;;;;;21.27;10.90;;;;;;;3.08;75.13;98710.47;4847482;29;20038;-94
2022/12/22 08:51:47;;;;;;;21.88;12.13;;;;;;;3.24;75.20;98728.16;4846682;29;20065;-94
2022/12/22 08:54:15;;;;;;;17.40;10.68;;;;;;;3.43;75.05;98731.03;4874677;29;20052;-91
2022/12/22 08:56:44;;;;;;;20.17;11.27;;;;;;;3.82;74.46;98776.16;4810898;29;20055;-91
2022/12/22 08:59:11;;;;;;;20.40;11.50;;;;;;;3.17;74.40;98678.25;4794549;29;20141;-91
2022/12/22 09:01:43;;;;;;;21.17;11.40;;;;;;;3.62;74.43;98773.63;4825786;29;20062;-92
2022/12/22 09:04:12;;;;;;;16.70;10.32;;;;;;;3.51;74.83;98757.47;4793910;29;20050;-91
2022/12/22 09:06:48;;;;;;;23.33;12.23;;;;;;;3.58;74.88;98754.44;4800682;29;20170;-94
2022/12/22 09:09:16;;;;;;;23.43;12.67;;;;;;;2.97;74.61;98652.19;4785351;29;20055;-94
2022/12/22 09:11:43;;;;;;;19.00;11.07;;;;;;;3.06;74.48;98664.81;4807850;29;20043;-95
2022/12/22 09:14:12;;;;;;;17.77;10.23;;;;;;;3.16;74.93;98704.47;4824824;29;20056;-95
2022/12/22 09:16:45;;;;;;;20.10;11.85;;;;;;;3.03;74.92;98678.06;4826824;29;20039;-94
2022/12/22 09:19:12;;;;;;;22.63;12.25;;;;;;;2.99;75.02;98663.53;4813222;29;20046;-93
2022/12/22 09:21:40;;;;;;;25.02;12.20;;;;;;;3.18;74.95;98712.25;4809208;29;20102;-94
2022/12/22 09:24:10;;;;;;;21.55;12.27;;;;;;;2.87;75.04;98676.53;4803709;29;20626;-95
2022/12/22 09:26:48;;;;;;;21.50;11.50;;;;;;;3.22;74.99;98724.16;4805608;29;20054;-96
2022/12/22 09:29:20;;;;;;;19.90;11.57;;;;;;;3.39;75.08;98748.09;4792087;29;20157;-94
2022/12/22 09:31:47;;;;;;;20.13;11.48;;;;;;;3.04;75.20;98702.06;4791672;29;20068;-96
2022/12/22 09:34:13;;;;;;;22.60;11.27;;;;;;;3.03;74.75;98667.28;4828715;29;20078;-95
2022/12/22 09:36:44;;;;;;;24.10;12.43;;;;;;;3.17;74.48;98689.84;4811257;29;20135;-95
2022/12/22 09:39:14;;;;;;;20.10;11.77;;;;;;;3.42;74.43;98718.63;4799492;29;20066;-94
2022/12/22 09:41:55;;;;;;;25.13;12.88;;;;;;;3.57;74.27;98742.00;4816892;29;20097;-95
2022/12/22 09:44:40;;;;;;;27.40;13.13;;;;;;;3.90;73.91;98775.56;4817425;29;20058;-95
2022/12/22 09:47:38;;;;;;;26.55;13.02;;;;;;;3.35;73.99;98711.91;4815652;29;20614;-95
2022/12/22 09:50:15;;;;;;;25.65;11.98;;;;;;;3.37;73.93;98725.94;4824941;29;20042;-95
2022/12/22 09:52:52;;;;;;;27.75;12.70;;;;;;;3.11;74.02;98669.38;4795186;29;20058;-95
2022/12/22 09:55:39;;;;;;;27.08;14.65;;;;;;;3.74;74.15;98779.47;4794142;29;20106;-95
2022/12/22 09:58:25;;;;;;;31.13;15.23;;;;;;;3.27;73.92;98692.50;4798316;29;20121;-94
2022/12/22 10:00:59;;;;;;;25.55;13.38;;;;;;;3.51;74.09;98735.06;4786150;29;20095;-95
2022/12/22 10:04:06;;;;;;;31.92;14.30;;;;;;;3.10;74.48;98688.56;4814815;29;20031;-95
2022/12/22 10:07:08;;;;;;;26.83;13.60;;;;;;;3.49;74.13;98727.22;4831371;29;20148;-94
2022/12/22 10:09:38;;;;;;;30.35;14.80;;;;;;;3.65;73.68;98740.63;4801701;29;20042;-94
2022/12/22 10:12:45;;;;;;;43.33;15.25;;;;;;;3.56;73.51;98707.97;4830249;29;20124;-95
2022/12/22 10:15:59;;;;;;;50.95;19.45;;;;;;;3.90;73.11;98753.13;4831554;29;20058;-95
2022/12/22 10:19:14;;;;;;;37.83;17.23;;;;;;;4.00;72.75;98767.34;5192332;23;20055;-95
2022/12/22 10:22:32;;;;;;;31.83;16.13;;;;;;;4.14;73.17;98793.75;4905843;29;20153;-94
2022/12/22 10:25:31;;;;;;;24.15;13.88;;;;;;;3.81;73.03;98752.94;4918649;29;20161;-95
2022/12/22 10:28:23;;;;;;;30.48;14.88;;;;;;;3.62;72.89;98706.84;4886610;29;20081;-94
2022/12/22 10:39:47;;;;;;;26.17;13.40;;;;;;;4.16;72.98;98753.72;4915845;29;20048;-94
2022/12/22 10:42:25;;;;;;;27.67;14.33;;;;;;;3.79;72.29;98687.53;4867384;29;20068;-95
2022/12/22 10:44:51;;;;;;;28.08;13.63;;;;;;;3.70;72.67;98691.91;4854736;29;20309;-94
2022/12/22 10:47:27;;;;;;;26.88;14.02;;;;;;;3.84;72.55;98692.91;5056997;23;20071;-95
2022/12/22 10:50:21;;;;;;;34.47;14.40;;;;;;;4.32;72.49;98771.41;4888231;29;20049;-95
2022/12/22 10:53:08;;;;;;;28.77;14.10;;;;;;;3.89;72.78;98746.91;4876474;29;20546;-93
2022/12/22 10:55:38;;;;;;;28.42;14.70;;;;;;;3.62;72.96;98682.53;4885884;29;20055;-93
2022/12/22 10:58:24;;;;;;;28.98;13.48;;;;;;;3.71;72.60;98702.47;4868399;29;20065;-95
2022/12/22 11:01:03;;;;;;;27.92;15.52;;;;;;;3.69;72.88;98690.31;4900922;29;20128;-93
2022/12/22 11:03:33;;;;;;;30.65;14.23;;;;;;;3.70;72.33;98687.31;4897780;29;20053;-94
2022/12/22 11:06:21;;;;;;;30.05;14.48;;;;;;;3.79;72.65;98722.66;4866486;29;20061;-93
2022/12/22 11:08:58;;;;;;;29.40;14.77;;;;;;;3.80;72.48;98732.38;4861188;29;20057;-95
2022/12/22 11:12:11;;;;;;;29.90;15.32;;;;;;;3.82;72.71;98711.28;4895437;29;20053;-96
2022/12/22 11:14:59;;;;;;;26.58;14.45;;;;;;;3.79;72.25;98695.63;4866394;29;20122;-95
2022/12/22 11:17:36;;;;;;;31.15;14.90;;;;;;;3.63;72.59;98696.84;4822260;29;20039;-94
2022/12/22 11:20:27;;;;;;;31.02;14.07;;;;;;;4.13;72.44;98765.09;4823412;29;20054;-96
2022/12/22 11:23:38;;;;;;;26.70;13.65;;;;;;;3.81;73.02;98738.59;4822461;29;20058;-93
2022/12/22 11:26:24;;;;;;;27.15;14.25;;;;;;;4.18;73.41;98801.03;4838580;29;20055;-95
2022/12/22 11:29:31;;;;;;;30.42;14.80;;;;;;;3.98;73.27;98766.84;4824396;29;20058;-95
2022/12/22 11:32:34;;;;;;;29.15;15.43;;;;;;;4.18;73.59;98809.16;4816228;29;20113;-94
2022/12/22 11:35:33;;;;;;;35.03;16.50;;;;;;;3.51;73.52;98711.53;4821833;29;20058;-94
2022/12/22 11:38:18;;;;;;;31.35;15.10;;;;;;;4.29;73.50;98814.47;4830922;29;20042;-95
2022/12/22 11:40:50;;;;;;;36.88;16.20;;;;;;;3.56;72.88;98691.75;4790275;29;20083;-95
2022/12/22 11:43:55;;;;;;;34.42;15.50;;;;;;;4.02;73.20;98785.22;4824470;29;20042;-96
2022/12/22 11:46:24;;;;;;;37.08;16.35;;;;;;;4.24;74.12;98809.94;4816193;29;20043;-94
2022/12/22 11:49:08;;;;;;;38.80;15.43;;;;;;;4.25;73.40;98803.41;4830190;29;20090;-95
2022/12/22 11:51:56;;;;;;;36.40;16.08;;;;;;;4.11;73.52;98776.22;4826115;29;20048;-94
2022/12/22 11:55:10;;;;;;;35.28;14.85;;;;;;;4.11;73.84;98810.56;4856701;29;20049;-93
2022/12/22 11:57:59;;;;;;;39.15;15.90;;;;;;;4.14;73.99;98809.97;4916930;29;20041;-93
2022/12/22 12:00:29;;;;;;;37.50;16.40;;;;;;;3.37;74.51;98717.84;4892526;29;20086;-94
2022/12/22 12:03:14;;;;;;;43.22;16.95;;;;;;;3.94;74.77;98813.66;4862025;29;20044;-92
2022/12/22 12:05:40;;;;;;;46.67;18.10;;;;;;;4.12;74.51;98823.00;4862417;29;20032;-93
2022/12/22 12:08:55;;;;;;;48.60;19.50;;;;;;;4.17;74.34;98823.78;4894033;29;20143;-93
2022/12/22 12:11:49;;;;;;;40.95;17.05;;;;;;;3.43;74.22;98725.63;4876064;29;20096;-96
2022/12/22 12:14:47;;;;;;;43.10;17.77;;;;;;;4.14;74.43;98823.50;4893653;29;20029;-94
2022/12/22 12:17:26;;;;;;;41.88;17.30;;;;;;;4.21;74.33;98832.13;4893559;29;20108;-94
2022/12/22 12:20:25;;;;;;;41.38;18.00;;;;;;;3.51;74.14;98735.06;4864272;29;20049;-93
2022/12/22 12:23:25;;;;;;;35.30;16.17;;;;;;;3.85;74.26;98786.41;4880124;29;20068;-94
2022/12/22 12:26:13;;;;;;;35.25;17.50;;;;;;;4.30;73.97;98829.59;4878153;29;20500;-94
2022/12/22 12:29:20;;;;;;;33.95;15.82;;;;;;;4.36;73.59;98837.41;4911306;29;20024;-93
2022/12/22 12:32:09;;;;;;;35.15;16.48;;;;;;;3.81;73.79;98774.56;4915305;29;20041;-95
2022/12/22 12:34:41;;;;;;;38.83;17.05;;;;;;;3.83;73.82;98771.56;4882370;29;20048;-94
2022/12/22 12:37:19;;;;;;;39.55;16.60;;;;;;;4.30;73.49;98838.53;4884077;29;20036;-94
2022/12/22 12:40:13;;;;;;;37.53;16.80;;;;;;;4.41;73.26;98841.97;4887337;29;20048;-93
2022/12/22 12:42:44;;;;;;;39.58;18.63;;;;;;;3.71;72.98;98731.41;4890635;29;20029;-94
2022/12/22 12:45:34;;;;;;;36.22;15.35;;;;;;;4.12;73.10;98804.06;4890252;29;20096;-94
2022/12/22 12:48:20;;;;;;;39.28;17.35;;;;;;;4.28;73.26;98848.84;4905412;29;20105;-94
2022/12/22 12:51:03;;;;;;;31.83;16.00;;;;;;;3.85;72.96;98753.19;4875001;29;20029;-92
2022/12/22 12:53:33;;;;;;;32.25;14.38;;;;;;;4.48;72.71;98843.25;4875816;29;20035;-94
2022/12/22 12:56:05;;;;;;;35.40;15.13;;;;;;;3.88;72.45;98739.09;4875421;29;20034;-93
2022/12/22 12:58:38;;;;;;;39.33;17.65;;;;;;;4.49;72.44;98841.34;4875609;29;20045;-92
2022/12/22 13:01:13;;;;;;;35.42;17.05;;;;;;;4.43;72.18;98818.94;4895064;29;20033;-92
2022/12/22 13:03:43;;;;;;;29.63;15.13;;;;;;;4.05;72.25;98773.84;4875867;29;20060;-94
2022/12/22 13:06:31;;;;;;;28.13;13.82;;;;;;;4.20;72.26;98814.25;4844684;29;20180;-92
2022/12/22 13:09:10;;;;;;;29.35;14.13;;;;;;;4.58;71.72;98861.31;4876283;29;20052;-94
2022/12/22 13:11:37;;;;;;;23.40;12.57;;;;;;;4.43;71.20;98832.47;4877114;29;20036;-90
2022/12/22 13:14:04;;;;;;;29.83;13.90;;;;;;;4.37;71.16;98797.59;4863983;29;20129;-93
2022/12/22 13:16:36;;;;;;;30.13;15.13;;;;;;;4.33;71.02;98793.88;4860227;29;20135;-94
2022/12/22 13:19:18;;;;;;;28.95;13.90;;;;;;;4.41;71.71;98850.91;4844813;29;20041;-91
2022/12/22 13:24:30;;;;;;;34.58;13.75;;;;;;;4.16;72.00;98797.78;4889080;29;20028;-95
2022/12/22 13:27:03;;;;;;;30.73;14.25;;;;;;;4.51;71.87;98852.72;4844802;29;20032;-93
2022/12/22 13:29:40;;;;;;;33.22;15.57;;;;;;;4.36;72.11;98832.00;4859721;29;20052;-93
2022/12/22 13:32:24;;;;;;;;;;;;;;;4.43;72.13;98861.44;4875665;29;20060;-92
2022/12/22 13:35:00;;;;;;;33.58;15.15;;;;;;;4.47;72.16;98863.31;4855409;29;19923;-93
2022/12/22 13:37:28;;;;;;;34.78;15.52;;;;;;;4.05;72.14;98801.69;4875515;29;20065;-95
2022/12/22 13:40:30;;;;;;;31.80;14.52;;;;;;;4.41;72.56;98852.81;4896476;29;20055;-94
2022/12/22 13:43:16;;;;;;;30.02;15.20;;;;;;;4.30;72.70;98835.81;4846232;29;20080;-95
2022/12/22 13:45:53;;;;;;;32.05;15.45;;;;;;;4.28;72.18;98838.03;4864450;29;20095;-91
2022/12/22 13:48:44;;;;;;;40.28;16.42;;;;;;;4.15;72.43;98817.84;4874272;29;20084;-96
2022/12/22 13:51:23;;;;;;;45.28;18.05;;;;;;;4.45;72.57;98872.78;4877588;29;20064;-92
2022/12/22 13:53:55;;;;;;;50.55;20.73;;;;;;;4.26;72.83;98856.41;4880306;29;20048;-91
2022/12/22 13:56:46;;;;;;;29.23;14.82;;;;;;;3.73;72.38;98784.06;4869489;29;20052;-92
2022/12/22 13:59:47;;;;;;;31.08;15.75;;;;;;;4.03;72.47;98813.88;4888092;29;20049;-92
2022/12/22 14:02:34;;;;;;;31.90;15.82;;;;;;;4.13;72.28;98819.19;4887895;29;20057;-92
2022/12/22 14:06:00;;;;;;;39.13;16.42;;;;;;;4.52;72.21;98875.97;4904093;29;20065;-93
2022/12/22 14:08:54;;;;;;;30.27;16.15;;;;;;;4.01;72.65;98819.56;4887367;29;20048;-94
2022/12/22 14:12:11;;;;;;;36.20;16.02;;;;;;;4.26;72.97;98877.25;4913611;29;20060;-93
2022/12/22 14:14:41;;;;;;;;;;;;;;;4.14;73.29;98877.59;4886307;29;20032;-91
2022/12/22 14:17:25;;;;;;;;;;;;;;;4.16;73.65;98888.97;4883157;29;19919;-90
2022/12/22 14:20:28;;;;;;;40.70;17.25;;;;;;;4.03;73.84;98868.75;4905464;29;19912;-91
2022/12/22 14:23:06;;;;;;;42.65;18.40;;;;;;;4.01;74.19;98860.13;4890176;29;20075;-91
2022/12/22 14:25:37;;;;;;;34.90;15.32;;;;;;;3.74;73.90;98831.66;4882376;29;20033;-91
2022/12/22 14:28:07;;;;;;;30.90;15.52;;;;;;;3.60;74.72;98827.94;4828230;29;20056;-91
2022/12/22 14:30:45;;;;;;;30.42;15.57;;;;;;;3.98;74.31;98891.25;4861348;29;20108;-92
2022/12/22 14:33:26;;;;;;;34.70;15.35;;;;;;;4.10;74.09;98879.25;4882729;29;20056;-91
2022/12/22 14:36:15;;;;;;;32.50;17.27;;;;;;;4.08;74.14;98881.47;4897428;29;20100;-93
2022/12/22 14:38:57;;;;;;;33.22;16.48;;;;;;;3.83;74.03;98817.53;4879419;29;20056;-94
2022/12/22 14:41:40;;;;;;;37.70;17.83;;;;;;;4.30;73.71;98864.78;4883558;29;20045;-94
2022/12/22 14:44:35;;;;;;;38.97;17.55;;;;;;;3.97;73.20;98816.63;4896653;29;20055;-92
2022/12/22 14:47:25;;;;;;;36.80;16.30;;;;;;;3.96;73.39;98825.81;4914671;29;20049;-92
2022/12/22 14:49:55;;;;;;;33.97;17.02;;;;;;;3.91;72.74;98806.94;4882915;29;20093;-90
2022/12/22 14:52:25;;;;;;;33.03;16.38;;;;;;;4.12;73.95;98875.19;4898290;29;20048;-92
2022/12/22 14:55:30;;;;;;;37.22;16.70;;;;;;;3.62;73.75;98785.22;4902735;29;20041;-93
2022/12/22 14:59:03;;;;;;;40.90;16.20;;;;;;;3.88;74.83;98880.50;5267808;23;20023;-93
2022/12/22 15:02:02;;;;;;;40.47;15.82;;;;;;;3.90;74.97;98889.13;4898940;29;20391;-93
2022/12/22 15:04:30;;;;;;;45.40;18.75;;;;;;;3.84;75.21;98892.13;4852168;29;20037;-89
2022/12/22 15:07:07;;;;;;;48.20;21.08;;;;;;;3.24;75.05;98811.09;4950107;23;20052;-95
2022/12/22 15:09:39;;;;;;;41.83;17.88;;;;;;;3.06;75.28;98812.53;4888156;29;20051;-96
2022/12/22 15:12:17;;;;;;;42.08;18.02;;;;;;;3.70;75.78;98908.16;4863682;29;20061;-91
2022/12/22 15:14:47;;;;;;;44.15;19.90;;;;;;;3.12;75.96;98827.63;4855227;29;20049;-91
2022/12/22 15:17:24;;;;;;;37.95;18.08;;;;;;;3.23;75.61;98858.09;4855240;29;20151;-91
2022/12/22 15:19:56;;;;;;;40.55;17.88;;;;;;;3.15;76.08;98812.78;4846523;29;20054;-94
2022/12/22 15:22:27;;;;;;;40.22;16.98;;;;;;;3.16;75.47;98817.88;4833490;29;20029;-91
2022/12/22 15:25:17;;;;;;;38.25;17.90;;;;;;;3.69;75.88;98911.94;4833276;29;20139;-93
2022/12/22 15:27:45;;;;;;;43.85;18.88;;;;;;;3.49;75.85;98866.91;4814485;29;20049;-93
2022/12/22 15:30:33;;;;;;;36.30;16.15;;;;;;;3.39;75.06;98842.66;4817593;29;20045;-94
2022/12/22 15:33:27;;;;;;;28.10;12.50;;;;;;;3.20;75.56;98835.16;4808694;29;20137;-92
2022/12/22 15:36:25;;;;;;;21.98;10.98;;;;;;;3.04;75.88;98829.00;4766650;30;20059;-93
2022/12/22 15:39:18;;;;;;;21.20;10.68;;;;;;;3.25;76.05;98885.66;4773283;29;20055;-92
2022/12/22 15:42:06;;;;;;;23.38;11.00;;;;;;;2.87;76.52;98820.41;4826058;29;20051;-91
2022/12/22 15:44:34;;;;;;;20.13;11.02;;;;;;;3.29;76.36;98892.13;4776300;29;20080;-91
2022/12/22 15:47:07;;;;;;;23.25;11.55;;;;;;;3.00;75.95;98835.22;4813911;29;20035;-90
2022/12/22 15:49:40;;;;;;;17.20;8.98;;;;;;;3.18;76.18;98879.72;4785992;29;20057;-91
2022/12/22 15:52:16;;;;;;;23.17;11.25;;;;;;;3.48;76.39;98922.06;4786119;29;20504;-92
2022/12/22 15:54:45;;;;;;;21.05;10.40;;;;;;;2.77;75.94;98825.84;4821760;29;20049;-94
2022/12/22 15:57:13;;;;;;;;;;;;;;;3.45;76.36;98928.81;4806793;29;20050;-90
2022/12/22 15:59:39;;;;;;;22.98;11.05;;;;;;;3.08;76.32;98856.28;4814486;29;20019;-93
2022/12/22 16:02:11;;;;;;;21.40;10.63;;;;;;;2.99;75.92;98855.22;4824538;29;20108;-92
2022/12/22 16:04:42;;;;;;;23.75;10.50;;;;;;;3.38;76.37;98928.28;4831258;29;20057;-94
2022/12/22 16:07:13;;;;;;;25.50;10.65;;;;;;;3.25;76.56;98912.66;4859763;29;20057;-94
2022/12/22 16:09:47;;;;;;;22.30;10.35;;;;;;;3.18;76.21;98898.63;4853846;29;20078;-90
2022/12/22 16:12:19;;;;;;;19.73;10.40;;;;;;;2.78;76.09;98852.56;4833232;29;20068;-91
2022/12/22 16:14:51;;;;;;;18.98;9.55;;;;;;;3.34;76.55;98961.53;4845294;29;20067;-93
2022/12/22 16:17:22;;;;;;;26.40;10.32;;;;;;;3.26;76.59;98952.91;4837053;29;20053;-91
2022/12/22 16:19:51;;;;;;;23.23;11.07;;;;;;;3.29;76.88;98946.16;4820197;29;20362;-90
2022/12/22 16:22:44;;;;;;;18.83;9.48;;;;;;;3.08;76.48;98928.34;4826419;29;20058;-90
2022/12/22 16:25:37;;;;;;;22.85;10.07;;;;;;;3.24;76.40;98940.75;4859022;29;20053;-91
2022/12/22 16:28:05;;;;;;;22.67;11.40;;;;;;;2.78;76.71;98870.63;4851701;29;20073;-91
2022/12/22 16:30:33;;;;;;;23.13;10.88;;;;;;;3.30;76.68;98943.16;4842510;29;20048;-91
2022/12/22 16:33:02;;;;;;;25.05;10.25;;;;;;;3.19;76.63;98935.38;4857718;29;20053;-89
2022/12/22 16:35:34;;;;;;;20.60;10.23;;;;;;;2.72;76.50;98861.75;4840197;29;20198;-90
2022/12/22 16:38:02;;;;;;;19.77;10.23;;;;;;;2.79;76.50;98864.97;4842899;29;20168;-89
2022/12/22 16:40:31;;;;;;;22.38;11.32;;;;;;;3.04;76.75;98895.69;4838173;29;20049;-89
2022/12/22 16:43:17;;;;;;;23.00;10.18;;;;;;;2.75;75.92;98855.81;4854948;29;20036;-91
2022/12/22 16:45:47;;;;;;;19.52;10.10;;;;;;;2.87;76.10;98874.41;4900893;29;20110;-91
2022/12/22 16:48:42;;;;;;;21.20;10.68;;;;;;;3.23;76.09;98922.94;4857746;29;20069;-89
2022/12/22 16:51:18;;;;;;;19.42;10.85;;;;;;;2.95;76.38;98884.66;4874041;29;20122;-90
2022/12/22 16:53:46;;;;;;;19.90;10.25;;;;;;;3.21;75.75;98903.47;4872943;29;20383;-90
2022/12/22 16:56:27;;;;;;;27.02;10.32;;;;;;;3.39;76.05;98926.41;4871822;29;20036;-90
2022/12/22 16:58:53;;;;;;;19.92;9.98;;;;;;;3.41;75.34;98949.34;4874301;29;20029;-91
2022/12/22 17:01:37;;;;;;;29.63;14.63;;;;;;;3.25;75.98;98910.78;4890765;29;20533;-89
2022/12/22 17:04:14;;;;;;;49.90;20.00;;;;;;;3.40;75.46;98939.63;4878423;29;20045;-92
2022/12/22 17:06:48;;;;;;;20.15;10.38;;;;;;;3.01;75.47;98870.06;4901674;29;20040;-90
2022/12/22 17:09:26;;;;;;;22.27;11.45;;;;;;;3.18;75.54;98883.25;4912650;29;20074;-92
2022/12/22 17:11:55;;;;;;;29.00;12.00;;;;;;;3.58;75.42;98942.81;4936330;24;20064;-90
2022/12/22 17:15:10;;;;;;;21.67;11.13;;;;;;;3.56;74.71;98899.03;4835902;29;20045;-89
2022/12/22 17:18:02;;;;;;;29.27;13.07;;;;;;;3.70;74.41;98881.94;4859687;29;20046;-90
2022/12/22 17:21:21;;;;;;;33.75;13.07;;;;;;;3.97;74.05;98930.22;4916239;23;20052;-90
2022/12/22 17:23:53;;;;;;;35.97;13.18;;;;;;;3.39;74.22;98867.75;4888280;29;20048;-91
2022/12/22 17:26:25;;;;;;;29.45;12.63;;;;;;;3.42;74.59;98907.75;4915387;29;20099;-91
2022/12/22 17:28:53;;;;;;;84.57;26.25;;;;;;;3.73;74.81;98935.44;4904726;29;20020;-92
2022/12/22 17:31:25;;;;;;;22.45;11.77;;;;;;;3.47;75.11;98942.84;4903134;29;20068;-92
2022/12/22 17:34:04;;;;;;;25.85;11.73;;;;;;;3.46;75.66;98967.44;4898572;29;20083;-90
2022/12/22 17:36:38;;;;;;;24.95;13.00;;;;;;;3.44;75.82;98951.47;4888152;29;20052;-89
2022/12/22 17:39:19;;;;;;;21.35;11.70;;;;;;;2.89;75.97;98872.25;4892040;29;20036;-88
2022/12/22 17:41:51;;;;;;;22.33;12.15;;;;;;;3.45;75.80;98963.94;4877349;29;20869;-89
2022/12/22 17:44:21;;;;;;;26.92;13.07;;;;;;;3.25;75.95;98915.38;4891552;29;20064;-92
2022/12/22 17:47:10;;;;;;;27.88;13.13;;;;;;;3.04;75.80;98869.50;4890876;29;20040;-89